createdAt,value
2023-05-01T00:01:00.355Z,4.60
2023-05-01T00:03:28.423Z,4.60
2023-05-01T00:06:04.984Z,4.60
2023-05-01T00:08:32.700Z,4.70
2023-05-01T00:11:04.169Z,4.70
2023-05-01T00:13:32.156Z,4.80
2023-05-01T00:15:59.654Z,4.70
2023-05-01T00:18:29.743Z,4.60
2023-05-01T00:20:57.304Z,4.60
2023-05-01T00:23:25.216Z,4.50
2023-05-01T00:25:53.586Z,4.50
2023-05-01T00:28:21.499Z,4.40
2023-05-01T00:30:48.678Z,4.40
2023-05-01T00:33:16.415Z,4.40
2023-05-01T00:35:47.194Z,4.30
2023-05-01T00:38:14.642Z,4.30
2023-05-01T00:40:43.852Z,4.30
2023-05-01T00:43:12.786Z,4.30
2023-05-01T00:45:45.532Z,4.30
2023-05-01T00:48:14.866Z,4.30
2023-05-01T00:50:43.035Z,4.20
2023-05-01T00:53:12.355Z,4.00
2023-05-01T00:55:42.526Z,4.00
2023-05-01T00:58:12.232Z,4.00
2023-05-01T01:00:40.076Z,4.00
2023-05-01T01:03:07.914Z,4.00
2023-05-01T01:05:42.269Z,4.00
2023-05-01T01:08:22.852Z,4.00
2023-05-01T01:11:14.848Z,4.00
2023-05-01T01:13:45.840Z,4.00
2023-05-01T01:16:23.455Z,4.00
2023-05-01T01:19:02.226Z,4.00
2023-05-01T01:21:38.211Z,4.00
2023-05-01T01:24:48.611Z,4.00
2023-05-01T01:27:52.810Z,4.00
2023-05-01T01:30:47.632Z,3.90
2023-05-01T01:33:34.114Z,3.90
2023-05-01T01:36:08.284Z,4.00
2023-05-01T01:38:45.796Z,3.90
2023-05-01T01:41:31.260Z,3.90
2023-05-01T01:44:09.144Z,3.90
2023-05-01T01:46:41.312Z,3.90
2023-05-01T01:49:15.691Z,3.80
2023-05-01T01:51:45.730Z,3.70
2023-05-01T01:54:15.731Z,3.60
2023-05-01T01:56:46.169Z,3.70
2023-05-01T01:59:15.311Z,3.60
2023-05-01T02:01:44.790Z,3.60
2023-05-01T02:04:15.871Z,3.60
2023-05-01T02:06:46.190Z,3.60
2023-05-01T02:09:19.362Z,3.60
2023-05-01T02:11:48.411Z,3.60
2023-05-01T02:14:18.439Z,3.60
2023-05-01T02:16:46.750Z,3.50
2023-05-01T02:19:15.292Z,3.50
2023-05-01T02:21:44.465Z,3.50
2023-05-01T02:24:14.549Z,3.50
2023-05-01T02:26:47.958Z,3.50
2023-05-01T02:29:15.224Z,3.50
2023-05-01T02:31:42.890Z,3.40
2023-05-01T02:34:10.147Z,3.50
2023-05-01T02:36:38.190Z,3.50
2023-05-01T02:39:06.580Z,3.60
2023-05-01T02:41:35.680Z,3.60
2023-05-01T02:44:06.055Z,3.60
2023-05-01T02:46:37.026Z,3.70
2023-05-01T02:49:06.348Z,3.70
2023-05-01T02:51:35.603Z,3.70
2023-05-01T02:54:03.780Z,3.70
2023-05-01T02:56:31.842Z,3.80
2023-05-01T02:58:59.056Z,3.80
2023-05-01T03:01:27.951Z,3.80
2023-05-01T03:03:55.408Z,3.80
2023-05-01T03:06:23.276Z,3.80
2023-05-01T03:08:51.493Z,3.80
2023-05-01T03:11:19.070Z,3.80
2023-05-01T03:13:47.626Z,3.90
2023-05-01T03:16:15.248Z,3.90
2023-05-01T03:18:42.672Z,3.90
2023-05-01T03:21:10.318Z,3.80
2023-05-01T03:23:38.436Z,3.80
2023-05-01T03:26:07.730Z,3.80
2023-05-01T03:28:35.064Z,3.80
2023-05-01T03:31:02.958Z,3.70
2023-05-01T03:33:32.062Z,3.80
2023-05-01T03:36:04.162Z,3.80
2023-05-01T03:38:33.349Z,3.80
2023-05-01T03:41:06.711Z,3.80
2023-05-01T03:43:46.032Z,3.90
2023-05-01T03:46:24.378Z,3.80
2023-05-01T03:48:51.599Z,3.90
2023-05-01T03:51:19.472Z,3.90
2023-05-01T03:53:47.430Z,4.00
2023-05-01T03:56:14.981Z,4.00
2023-05-01T03:58:42.388Z,4.10
2023-05-01T04:01:10.322Z,4.20
2023-05-01T04:03:42.768Z,4.30
2023-05-01T04:06:10.946Z,4.40
2023-05-01T04:08:38.237Z,4.40
2023-05-01T04:11:06.408Z,4.50
2023-05-01T04:13:33.732Z,4.60
2023-05-01T04:16:03.049Z,4.70
2023-05-01T04:18:30.449Z,4.80
2023-05-01T04:21:00.215Z,5.00
2023-05-01T04:23:27.443Z,5.10
2023-05-01T04:25:58.487Z,5.20
2023-05-01T04:28:26.531Z,5.40
2023-05-01T04:30:54.084Z,5.50
2023-05-01T04:33:21.664Z,5.60
2023-05-01T04:35:50.269Z,5.70
2023-05-01T04:38:17.635Z,5.90
2023-05-01T04:40:45.869Z,6.10
2023-05-01T04:43:13.479Z,6.20
2023-05-01T04:45:41.901Z,6.30
2023-05-01T04:48:09.299Z,6.50
2023-05-01T04:50:37.781Z,6.60
2023-05-01T04:53:05.045Z,6.70
2023-05-01T04:55:35.976Z,6.80
2023-05-01T04:58:07.829Z,7.00
2023-05-01T05:00:36.988Z,7.10
2023-05-01T05:03:07.322Z,7.20
2023-05-01T05:05:35.469Z,7.30
2023-05-01T05:08:04.829Z,7.40
2023-05-01T05:10:35.937Z,7.50
2023-05-01T05:13:26.873Z,7.60
2023-05-01T05:16:10.450Z,7.70
2023-05-01T05:18:38.718Z,7.80
2023-05-01T05:21:06.883Z,7.80
2023-05-01T05:23:34.206Z,7.90
2023-05-01T05:26:02.898Z,8.00
2023-05-01T05:28:31.606Z,8.00
2023-05-01T05:31:00.271Z,8.10
2023-05-01T05:33:28.536Z,8.20
2023-05-01T05:35:58.990Z,8.30
2023-05-01T05:38:29.372Z,8.30
2023-05-01T05:40:59.646Z,8.40
2023-05-01T05:43:28.101Z,8.50
2023-05-01T05:45:58.287Z,8.60
2023-05-01T05:48:27.003Z,8.60
2023-05-01T05:50:55.082Z,8.70
2023-05-01T05:53:25.568Z,8.80
2023-05-01T05:55:54.122Z,8.90
2023-05-01T05:58:23.114Z,9.00
2023-05-01T06:00:52.157Z,9.00
2023-05-01T06:03:19.856Z,9.20
2023-05-01T06:05:48.692Z,9.30
2023-05-01T06:08:16.187Z,9.30
2023-05-01T06:10:44.447Z,9.40
2023-05-01T06:13:14.683Z,9.50
2023-05-01T06:15:50.201Z,9.60
2023-05-01T06:18:17.776Z,9.70
2023-05-01T06:20:47.233Z,9.80
2023-05-01T06:23:15.682Z,9.80
2023-05-01T06:26:06.393Z,9.90
2023-05-01T06:28:35.338Z,10.00
2023-05-01T06:31:03.825Z,10.10
2023-05-01T06:33:38.205Z,10.20
2023-05-01T06:36:17.062Z,10.20
2023-05-01T06:38:48.757Z,10.30
2023-05-01T06:41:17.206Z,10.40
2023-05-01T06:43:45.699Z,10.50
2023-05-01T06:46:13.363Z,10.70
2023-05-01T06:48:41.405Z,10.80
2023-05-01T06:51:08.986Z,11.00
2023-05-01T06:53:37.581Z,11.10
2023-05-01T06:56:05.414Z,11.20
2023-05-01T06:58:32.833Z,11.30
2023-05-01T07:01:01.197Z,11.40
2023-05-01T07:03:28.814Z,11.50
2023-05-01T07:05:56.720Z,11.60
2023-05-01T07:08:24.329Z,11.70
2023-05-01T07:10:51.931Z,11.80
2023-05-01T07:13:19.611Z,11.90
2023-05-01T08:00:19.949Z,12.10
2023-05-01T08:02:47.470Z,13.10
2023-05-01T08:05:15.178Z,13.00
2023-05-01T08:07:42.489Z,13.20
2023-05-01T08:10:10.398Z,13.30
2023-05-01T08:12:37.679Z,13.40
2023-05-01T08:15:05.688Z,13.50
2023-05-01T08:17:33.219Z,13.50
2023-05-01T08:20:00.909Z,13.40
2023-05-01T08:22:28.487Z,13.30
2023-05-01T08:24:56.294Z,13.50
2023-05-01T08:27:23.591Z,13.60
2023-05-01T08:29:52.247Z,13.60
2023-05-01T08:32:19.595Z,13.60
2023-05-01T08:34:47.114Z,13.60
2023-05-01T08:37:14.734Z,13.70
2023-05-01T08:39:42.548Z,13.70
2023-05-01T08:42:10.319Z,13.70
2023-05-01T08:44:39.903Z,13.80
2023-05-01T08:47:11.201Z,14.10
2023-05-01T08:49:40.709Z,14.20
2023-05-01T08:52:08.803Z,14.30
2023-05-01T08:54:39.406Z,14.40
2023-05-01T08:57:10.369Z,14.10
2023-05-01T08:59:39.605Z,14.10
2023-05-01T09:02:10.425Z,13.90
2023-05-01T09:04:40.003Z,14.00
2023-05-01T09:07:09.261Z,14.20
2023-05-01T09:09:37.332Z,14.10
2023-05-01T09:12:10.795Z,14.20
2023-05-01T09:14:38.656Z,14.40
2023-05-01T09:17:06.177Z,14.50
2023-05-01T09:19:33.828Z,14.60
2023-05-01T09:22:01.289Z,14.60
2023-05-01T09:24:28.781Z,14.60
2023-05-01T09:26:58.961Z,14.60
2023-05-01T09:29:46.653Z,14.60
2023-05-01T09:32:28.894Z,14.70
2023-05-01T09:35:08.766Z,14.70
2023-05-01T09:37:36.153Z,14.80
2023-05-01T09:42:33.084Z,14.80
2023-05-01T09:45:02.329Z,15.10
2023-05-01T09:47:29.890Z,15.20
2023-05-01T09:49:59.637Z,15.30
2023-05-01T09:52:28.486Z,15.30
2023-05-01T09:55:16.127Z,15.20
2023-05-01T09:57:45.606Z,15.30
2023-05-01T10:00:17.146Z,14.80
2023-05-01T10:02:47.086Z,15.00
2023-05-01T10:05:15.372Z,15.20
2023-05-01T10:08:01.164Z,15.40
2023-05-01T10:12:56.629Z,15.40
2023-05-01T10:15:37.229Z,15.60
2023-05-01T10:18:05.206Z,15.70
2023-05-01T10:20:33.002Z,15.60
2023-05-01T10:23:02.611Z,15.30
2023-05-01T10:25:31.702Z,15.30
2023-05-01T10:27:59.789Z,15.40
2023-05-01T12:49:24.133Z,15.40
2023-05-01T12:51:54.222Z,17.70
2023-05-01T12:54:33.059Z,17.60
2023-05-01T14:02:47.427Z,17.70
2023-05-01T14:05:23.401Z,18.60
2023-05-01T14:07:55.493Z,18.60
2023-05-01T14:10:25.312Z,18.60
2023-05-01T14:12:56.021Z,18.60
2023-05-01T14:15:24.614Z,18.70
2023-05-01T14:22:52.585Z,18.80
2023-05-01T14:27:53.524Z,19.20
2023-05-01T14:37:52.715Z,19.90
2023-05-01T14:40:30.335Z,23.00
2023-05-01T14:42:58.355Z,24.70
2023-05-01T15:42:29.388Z,30.10
2023-05-01T15:57:18.338Z,46.40
2023-05-01T16:04:41.359Z,40.70
2023-05-01T16:07:09.342Z,38.60
2023-05-01T16:17:06.174Z,38.50
2023-05-01T16:19:33.936Z,38.10
2023-05-01T16:22:03.812Z,38.10
2023-05-01T16:24:38.410Z,38.80
2023-05-01T16:27:06.101Z,39.60
2023-05-01T16:29:34.520Z,39.70
2023-05-01T16:32:06.136Z,39.40
2023-05-01T16:34:33.659Z,38.50
2023-05-01T16:37:01.187Z,37.80
2023-05-01T16:41:56.675Z,36.80
2023-05-01T16:44:24.010Z,35.00
2023-05-01T16:46:54.228Z,34.30
2023-05-01T16:49:23.207Z,33.10
2023-05-01T16:51:56.780Z,32.10
2023-05-01T16:54:35.545Z,31.00
2023-05-01T16:57:03.599Z,29.50
2023-05-01T16:59:31.590Z,28.80
2023-05-01T17:01:59.425Z,27.60
2023-05-01T17:04:26.850Z,26.60
2023-05-01T17:06:56.201Z,25.50
2023-05-01T17:09:23.970Z,24.70
2023-05-01T17:11:56.814Z,24.40
2023-05-01T17:14:25.290Z,25.30
2023-05-01T17:16:53.353Z,26.20
2023-05-01T17:19:20.929Z,28.40
2023-05-01T17:21:48.500Z,29.80
2023-05-01T17:24:15.842Z,31.00
2023-05-01T17:26:43.456Z,29.60
2023-05-01T17:29:10.977Z,28.60
2023-05-01T17:31:38.613Z,27.00
2023-05-01T17:34:06.064Z,25.20
2023-05-01T17:36:33.804Z,24.00
2023-05-01T17:39:01.611Z,23.00
2023-05-01T17:41:29.798Z,22.20
2023-05-01T17:43:57.288Z,21.50
2023-05-01T17:46:24.931Z,20.70
2023-05-01T17:48:53.587Z,20.20
2023-05-01T17:51:21.096Z,19.70
2023-05-01T17:53:48.486Z,19.30
2023-05-01T17:56:17.720Z,18.90
2023-05-01T17:58:45.201Z,18.60
2023-05-01T18:01:13.059Z,18.30
2023-05-01T18:03:40.699Z,18.00
2023-05-01T18:06:08.313Z,17.70
2023-05-01T18:08:35.752Z,17.40
2023-05-01T18:11:03.904Z,17.20
2023-05-01T18:13:33.565Z,16.90
2023-05-01T18:16:01.381Z,16.70
2023-05-01T18:18:28.906Z,16.50
2023-05-01T18:20:57.181Z,16.30
2023-05-01T18:23:25.318Z,16.20
2023-05-01T18:25:55.011Z,16.00
2023-05-01T18:28:22.818Z,15.80
2023-05-01T18:30:50.339Z,15.60
2023-05-01T18:33:18.292Z,15.40
2023-05-01T18:35:45.869Z,15.30
2023-05-01T18:38:13.377Z,15.20
2023-05-01T18:40:40.913Z,15.10
2023-05-01T18:43:08.409Z,14.80
2023-05-01T18:45:35.992Z,14.70
2023-05-01T18:48:03.868Z,14.60
2023-05-01T18:50:31.949Z,14.50
2023-05-01T18:52:59.309Z,14.50
2023-05-01T18:55:26.919Z,14.40
2023-05-01T18:57:54.315Z,14.30
2023-05-01T19:00:22.205Z,14.20
2023-05-01T19:02:53.051Z,14.00
2023-05-01T19:05:22.612Z,13.90
2023-05-01T19:07:50.138Z,13.90
2023-05-01T19:10:18.465Z,13.80
2023-05-01T19:12:45.867Z,13.80
2023-05-01T19:15:13.686Z,13.70
2023-05-01T19:17:41.499Z,13.70
2023-05-01T19:20:09.377Z,13.70
2023-05-01T19:22:36.594Z,13.60
2023-05-01T19:25:04.431Z,13.60
2023-05-01T19:27:31.914Z,13.50
2023-05-01T19:30:01.213Z,13.40
2023-05-01T19:32:29.326Z,13.40
2023-05-01T19:34:57.048Z,13.30
2023-05-01T19:37:24.500Z,13.20
2023-05-01T19:39:52.130Z,13.10
2023-05-01T19:42:19.524Z,13.10
2023-05-01T19:44:47.601Z,13.10
2023-05-01T19:47:14.863Z,13.10
2023-05-01T19:49:43.920Z,13.00
2023-05-01T19:52:11.895Z,13.00
2023-05-01T19:54:39.391Z,12.90
2023-05-01T19:57:06.766Z,12.90
2023-05-01T19:59:38.711Z,12.90
2023-05-01T20:02:06.440Z,12.90
2023-05-01T20:04:34.372Z,12.80
2023-05-01T20:07:02.835Z,12.80
2023-05-01T20:09:31.350Z,12.70
2023-05-01T20:11:58.894Z,12.70
2023-05-01T20:14:27.086Z,12.80
2023-05-01T20:16:54.512Z,12.70
2023-05-01T20:19:22.880Z,12.70
2023-05-01T20:21:50.855Z,12.70
2023-05-01T20:24:18.578Z,12.60
2023-05-01T20:26:50.592Z,12.50
2023-05-01T20:29:18.077Z,12.50
2023-05-01T20:31:45.641Z,12.40
2023-05-01T20:34:13.240Z,12.40
2023-05-01T20:36:40.672Z,12.40
2023-05-01T20:39:08.371Z,12.40
2023-05-01T20:41:36.083Z,12.20
2023-05-01T20:44:03.847Z,12.20
2023-05-01T20:46:31.340Z,12.10
2023-05-01T20:48:59.027Z,12.10
2023-05-01T20:51:27.438Z,12.10
2023-05-01T20:53:54.890Z,12.10
2023-05-01T20:56:22.302Z,12.10
2023-05-01T20:58:50.186Z,12.10
2023-05-01T21:01:17.667Z,12.10
2023-05-01T21:03:45.882Z,12.10
2023-05-01T21:06:15.013Z,12.10
2023-05-01T21:08:42.671Z,12.10
2023-05-01T21:11:10.057Z,12.00
2023-05-01T21:13:37.615Z,12.00
2023-05-01T21:16:09.662Z,11.90
2023-05-01T21:18:37.922Z,11.90
2023-05-01T21:21:05.340Z,11.90
2023-05-01T21:23:33.068Z,11.90
2023-05-01T21:26:00.281Z,11.80
2023-05-01T21:28:28.005Z,11.80
2023-05-01T21:30:55.301Z,11.80
2023-05-01T21:33:22.990Z,11.80
2023-05-01T21:35:50.585Z,11.80
2023-05-01T21:38:18.167Z,11.70
2023-05-01T21:40:46.519Z,11.80
2023-05-01T21:43:14.352Z,11.80
2023-05-01T21:45:44.715Z,11.80
2023-05-01T21:48:15.650Z,11.70
2023-05-01T21:50:43.046Z,11.70
2023-05-01T21:53:10.598Z,11.60
2023-05-01T21:55:38.925Z,11.60
2023-05-01T21:58:06.507Z,11.70
2023-05-01T22:00:33.880Z,11.60
2023-05-01T22:03:05.933Z,11.60
2023-05-01T22:05:34.510Z,11.60
2023-05-01T22:08:02.187Z,11.60
2023-05-01T22:10:29.712Z,11.60
2023-05-01T22:12:57.218Z,11.60
2023-05-01T22:15:24.793Z,11.70
2023-05-01T22:17:52.689Z,11.60
2023-05-01T22:20:19.973Z,11.60
2023-05-01T22:22:47.982Z,11.60
2023-05-01T22:25:16.096Z,11.60
2023-05-01T22:27:43.687Z,11.60
2023-05-01T22:30:11.702Z,11.60
2023-05-01T22:32:39.292Z,11.50
2023-05-01T22:35:08.473Z,11.60
2023-05-01T22:37:36.240Z,11.50
2023-05-01T22:40:05.205Z,11.50
2023-05-01T22:42:32.767Z,11.50
2023-05-01T22:45:00.318Z,11.50
2023-05-01T22:47:27.936Z,11.50
2023-05-01T22:49:55.567Z,11.50
2023-05-01T22:52:23.153Z,11.40
2023-05-01T22:54:52.598Z,11.40
2023-05-01T22:57:20.351Z,11.40
2023-05-01T22:59:48.495Z,11.40
2023-05-01T23:02:17.625Z,11.40
2023-05-01T23:04:45.653Z,11.40
2023-05-01T23:07:15.451Z,11.40
2023-05-01T23:09:43.092Z,11.30
2023-05-01T23:12:23.201Z,11.30
2023-05-01T23:14:50.714Z,11.20
2023-05-01T23:17:19.596Z,11.20
2023-05-01T23:19:47.325Z,11.20
2023-05-01T23:22:19.209Z,11.20
2023-05-01T23:24:51.038Z,11.10
2023-05-01T23:27:20.121Z,11.10
2023-05-01T23:29:54.451Z,11.10
2023-05-01T23:32:30.907Z,11.10
2023-05-01T23:35:04.957Z,11.10
2023-05-01T23:37:32.501Z,11.00
2023-05-01T23:40:00.936Z,11.00
2023-05-01T23:42:28.905Z,11.00
2023-05-01T23:45:00.265Z,11.00
2023-05-01T23:47:27.829Z,11.00
2023-05-01T23:49:55.778Z,11.00
2023-05-01T23:52:23.337Z,11.00
2023-05-01T23:54:50.562Z,11.00
2023-05-01T23:57:18.131Z,11.00
2023-05-01T23:59:56.685Z,11.10
